createdAt,value
2022-09-04T00:01:27.368Z,961.17
2022-09-04T00:02:27.494Z,961.2
2022-09-04T00:03:27.458Z,961.25
2022-09-04T00:04:28.720Z,961.22
2022-09-04T00:06:27.501Z,961.21
2022-09-04T00:07:28.654Z,961.25
2022-09-04T00:09:27.464Z,961.23
2022-09-04T00:10:27.525Z,961.28
2022-09-04T00:11:27.511Z,961.24
2022-09-04T00:12:27.400Z,961.23
2022-09-04T00:13:28.742Z,961.25
2022-09-04T00:14:27.508Z,961.27
2022-09-04T00:15:27.467Z,961.28
2022-09-04T00:16:27.537Z,961.26
2022-09-04T00:17:27.506Z,961.3
2022-09-04T00:18:27.418Z,961.29
2022-09-04T00:19:31.745Z,961.28
2022-09-04T00:20:27.526Z,961.31
2022-09-04T00:23:27.512Z,961.33
2022-09-04T00:24:27.585Z,961.31
2022-09-04T00:25:27.452Z,961.34
2022-09-04T00:26:27.514Z,961.29
2022-09-04T00:27:28.814Z,961.31
2022-09-04T00:28:27.563Z,961.35
2022-09-04T00:29:27.527Z,961.34
2022-09-04T00:30:27.472Z,961.36
2022-09-04T00:31:27.562Z,961.33
2022-09-04T00:33:27.490Z,961.35
2022-09-04T00:34:27.569Z,961.34
2022-09-04T00:35:27.533Z,961.36
2022-09-04T00:36:27.522Z,961.33
2022-09-04T00:37:27.577Z,961.34
2022-09-04T00:38:27.465Z,961.32
2022-09-04T00:39:28.884Z,961.29
2022-09-04T00:41:27.541Z,961.3
2022-09-04T00:42:27.507Z,961.29
2022-09-04T00:43:27.582Z,961.27
2022-09-04T00:44:27.544Z,961.3
2022-09-04T00:45:27.561Z,961.33
2022-09-04T00:46:27.481Z,961.31
2022-09-04T00:48:27.524Z,961.29
2022-09-04T00:49:27.488Z,961.31
2022-09-04T00:51:27.513Z,961.3
2022-09-04T00:53:27.564Z,961.31
2022-09-04T00:54:27.648Z,961.34
2022-09-04T00:55:27.600Z,961.31
2022-09-04T00:56:27.513Z,961.35
2022-09-04T00:57:27.525Z,961.34
2022-09-04T00:59:28.483Z,961.35
2022-09-04T01:00:27.647Z,961.36
2022-09-04T01:01:27.677Z,961.33
2022-09-04T01:02:27.625Z,961.34
2022-09-04T01:04:27.622Z,961.35
2022-09-04T01:05:27.602Z,961.33
2022-09-04T01:06:27.527Z,961.35
2022-09-04T01:07:27.733Z,961.37
2022-09-04T01:08:27.644Z,961.34
2022-09-04T01:09:27.549Z,961.35
2022-09-04T01:10:27.627Z,961.39
2022-09-04T01:11:27.617Z,961.38
2022-09-04T01:12:27.667Z,961.4
2022-09-04T01:13:27.637Z,961.37
2022-09-04T01:16:27.586Z,961.36
2022-09-04T01:17:27.707Z,961.39
2022-09-04T01:18:27.566Z,961.41
2022-09-04T01:19:27.647Z,961.39
2022-09-04T01:20:27.563Z,961.38
2022-09-04T01:21:27.572Z,961.41
2022-09-04T01:22:27.646Z,961.4
2022-09-04T01:23:27.613Z,961.43
2022-09-04T01:24:27.687Z,961.38
2022-09-04T01:25:27.577Z,961.46
2022-09-04T01:26:28.671Z,961.41
2022-09-04T01:27:27.697Z,961.39
2022-09-04T01:29:27.579Z,961.41
2022-09-04T01:30:27.690Z,961.39
2022-09-04T01:31:27.724Z,961.4
2022-09-04T01:32:27.730Z,961.42
2022-09-04T01:33:27.699Z,961.39
2022-09-04T01:34:27.663Z,961.41
2022-09-04T01:35:27.727Z,961.44
2022-09-04T01:36:27.705Z,961.41
2022-09-04T01:37:27.700Z,961.42
2022-09-04T01:39:27.758Z,961.4
2022-09-04T01:40:35.113Z,961.42
2022-09-04T01:41:27.613Z,961.41
2022-09-04T01:42:27.615Z,961.42
2022-09-04T01:43:27.700Z,961.43
2022-09-04T01:45:27.765Z,961.41
2022-09-04T01:46:27.628Z,961.42
2022-09-04T01:47:27.747Z,961.41
2022-09-04T01:48:27.637Z,961.43
2022-09-04T01:49:27.782Z,961.45
2022-09-04T01:50:27.754Z,961.42
2022-09-04T01:51:27.722Z,961.45
2022-09-04T01:52:27.792Z,961.5
2022-09-04T01:53:27.646Z,961.53
2022-09-04T01:54:27.761Z,961.52
2022-09-04T01:55:27.720Z,961.57
2022-09-04T01:56:27.667Z,961.54
2022-09-04T01:57:27.728Z,961.57
2022-09-04T01:58:27.708Z,961.6
2022-09-04T01:59:27.787Z,961.57
2022-09-04T02:00:27.736Z,961.56
2022-09-04T02:01:27.947Z,961.59
2022-09-04T02:02:27.745Z,961.55
2022-09-04T02:03:27.665Z,961.59
2022-09-04T02:05:27.690Z,961.63
2022-09-04T02:06:27.765Z,961.61
2022-09-04T02:07:27.673Z,961.6
2022-09-04T02:09:27.751Z,961.56
2022-09-04T02:10:27.696Z,961.61
2022-09-04T02:11:28.401Z,961.6
2022-09-04T02:12:27.851Z,961.56
2022-09-04T02:13:27.715Z,961.59
2022-09-04T02:14:27.687Z,961.65
2022-09-04T02:15:28.969Z,961.64
2022-09-04T02:16:27.715Z,961.62
2022-09-04T02:17:27.794Z,961.63
2022-09-04T02:18:27.875Z,961.64
2022-09-04T02:19:27.839Z,961.62
2022-09-04T02:20:27.714Z,961.65
2022-09-04T02:21:27.864Z,961.64
2022-09-04T02:22:27.723Z,961.66
2022-09-04T02:23:27.797Z,961.71
2022-09-04T02:24:29.021Z,961.72
2022-09-04T02:25:27.723Z,961.71
2022-09-04T02:26:27.802Z,961.73
2022-09-04T02:28:27.840Z,961.75
2022-09-04T02:29:27.736Z,961.76
2022-09-04T02:30:29.074Z,961.77
2022-09-04T02:31:28.039Z,961.8
2022-09-04T02:32:27.815Z,961.82
2022-09-04T02:33:27.740Z,961.83
2022-09-04T02:34:27.857Z,961.86
2022-09-04T02:35:27.820Z,961.87
2022-09-04T02:36:27.778Z,961.88
2022-09-04T02:40:27.928Z,961.89
2022-09-04T02:41:27.839Z,961.86
2022-09-04T02:42:27.899Z,961.89
2022-09-04T02:43:27.867Z,961.84
2022-09-04T02:44:27.842Z,961.87
2022-09-04T02:46:27.896Z,961.84
2022-09-04T02:47:27.771Z,961.86
2022-09-04T02:48:27.906Z,961.87
2022-09-04T02:49:27.873Z,961.86
2022-09-04T02:51:27.785Z,961.89
2022-09-04T02:53:27.787Z,961.94
2022-09-04T02:55:27.884Z,961.97
2022-09-04T02:56:27.808Z,961.99
2022-09-04T02:57:27.808Z,962.01
2022-09-04T02:58:27.810Z,962.02
2022-09-04T02:59:27.874Z,962.03
2022-09-04T03:00:27.960Z,962.07
2022-09-04T03:01:27.839Z,961.97
2022-09-04T03:02:27.881Z,961.95
2022-09-04T03:03:27.936Z,962.02
2022-09-04T03:04:27.890Z,961.91
2022-09-04T03:05:27.857Z,962.08
2022-09-04T03:06:27.920Z,961.99
2022-09-04T03:07:27.895Z,962.07
2022-09-04T03:08:27.967Z,962.06
2022-09-04T03:09:28.024Z,962.07
2022-09-04T03:11:27.826Z,962.06
2022-09-04T03:12:27.937Z,962.04
2022-09-04T03:14:27.974Z,962.06
2022-09-04T03:15:27.839Z,962.09
2022-09-04T03:16:27.955Z,962.1
2022-09-04T03:17:27.851Z,962.06
2022-09-04T03:18:28.045Z,962.07
2022-09-04T03:19:28.027Z,962.06
2022-09-04T03:20:27.870Z,962.1
2022-09-04T03:21:27.853Z,962.09
2022-09-04T03:23:27.979Z,962.12
2022-09-04T03:25:27.919Z,962.18
2022-09-04T03:27:27.956Z,962.19
2022-09-04T03:28:28.025Z,962.2
2022-09-04T03:29:27.872Z,962.18
2022-09-04T03:30:27.880Z,962.19
2022-09-04T03:31:28.138Z,962.16
2022-09-04T03:32:27.876Z,962.2
2022-09-04T03:33:27.894Z,962.17
2022-09-04T03:34:27.923Z,962.16
2022-09-04T03:36:27.970Z,962.17
2022-09-04T03:37:27.938Z,962.18
2022-09-04T03:38:27.910Z,962.17
2022-09-04T03:39:27.930Z,962.19
2022-09-04T03:40:27.944Z,962.14
2022-09-04T03:42:27.973Z,962.15
2022-09-04T03:43:27.907Z,962.13
2022-09-04T03:45:27.990Z,962.09
2022-09-04T03:46:27.947Z,962.11
2022-09-04T03:47:27.924Z,962.15
2022-09-04T03:48:27.983Z,962.17
2022-09-04T03:49:28.057Z,962.19
2022-09-04T03:50:28.050Z,962.2
2022-09-04T03:51:27.942Z,962.17
2022-09-04T03:52:27.927Z,962.2
2022-09-04T03:53:27.942Z,962.22
2022-09-04T03:54:27.949Z,962.23
2022-09-04T03:55:28.060Z,962.22
2022-09-04T03:56:27.963Z,962.21
2022-09-04T03:57:28.099Z,962.23
2022-09-04T03:58:28.066Z,962.24
2022-09-04T03:59:27.943Z,962.22
2022-09-04T04:00:28.058Z,962.24
2022-09-04T04:01:28.105Z,962.22
2022-09-04T04:02:28.045Z,962.19
2022-09-04T04:03:28.025Z,962.16
2022-09-04T04:04:28.065Z,962.22
2022-09-04T04:05:27.965Z,962.17
2022-09-04T04:06:28.009Z,962.18
2022-09-04T04:07:28.082Z,962.22
2022-09-04T04:08:27.957Z,962.23
2022-09-04T04:09:28.113Z,962.24
2022-09-04T04:10:28.078Z,962.27
2022-09-04T04:11:28.046Z,962.3
2022-09-04T04:12:28.117Z,962.32
2022-09-04T04:13:27.984Z,962.33
2022-09-04T04:14:28.053Z,962.34
2022-09-04T04:15:28.042Z,962.36
2022-09-04T04:16:28.179Z,962.37
2022-09-04T04:17:28.064Z,962.36
2022-09-04T04:18:28.237Z,962.35
2022-09-04T04:19:28.089Z,962.34
2022-09-04T04:20:28.055Z,962.35
2022-09-04T04:22:28.106Z,962.33
2022-09-04T04:23:28.064Z,962.37
2022-09-04T04:24:28.029Z,962.39
2022-09-04T04:26:28.012Z,962.34
2022-09-04T04:27:28.022Z,962.38
2022-09-04T04:28:28.017Z,962.41
2022-09-04T04:29:28.173Z,962.38
2022-09-04T04:30:28.149Z,962.43
2022-09-04T04:32:28.176Z,962.44
2022-09-04T04:33:28.039Z,962.49
2022-09-04T04:35:28.032Z,962.51
2022-09-04T04:36:28.148Z,962.53
2022-09-04T04:37:28.044Z,962.54
2022-09-04T04:38:28.185Z,962.6
2022-09-04T04:39:30.212Z,962.64
2022-09-04T04:40:28.056Z,962.59
2022-09-04T04:41:28.033Z,962.63
2022-09-04T04:42:28.158Z,962.6
2022-09-04T04:43:28.127Z,962.64
2022-09-04T04:44:28.050Z,962.65
2022-09-04T04:45:28.061Z,962.62
2022-09-04T04:48:28.165Z,962.66
2022-09-04T04:49:28.136Z,962.62
2022-09-04T04:50:29.480Z,962.64
2022-09-04T04:51:28.074Z,962.63
2022-09-04T04:52:28.144Z,962.64
2022-09-04T04:53:28.113Z,962.63
2022-09-04T04:54:28.077Z,962.68
2022-09-04T04:55:28.140Z,962.7
2022-09-04T04:56:28.107Z,962.71
2022-09-04T04:57:28.173Z,962.72
2022-09-04T04:58:28.153Z,962.74
2022-09-04T04:59:28.083Z,962.77
2022-09-04T05:00:28.182Z,962.79
2022-09-04T05:01:28.295Z,962.74
2022-09-04T05:02:28.181Z,962.76
2022-09-04T05:04:28.152Z,962.74
2022-09-04T05:05:28.228Z,962.78
2022-09-04T05:06:28.189Z,962.82
2022-09-04T05:07:28.163Z,962.85
2022-09-04T05:08:28.229Z,962.87
2022-09-04T05:10:28.292Z,962.93
2022-09-04T05:11:28.235Z,962.94
2022-09-04T05:13:28.114Z,962.97
2022-09-04T05:15:28.203Z,963
2022-09-04T05:16:28.324Z,963.02
2022-09-04T05:17:28.289Z,963.05
2022-09-04T05:18:28.139Z,963.11
2022-09-04T05:19:28.272Z,963.08
2022-09-04T05:20:28.244Z,963.11
2022-09-04T05:21:28.210Z,963.14
2022-09-04T05:22:31.395Z,963.15
2022-09-04T05:23:28.841Z,963.2
2022-09-04T05:24:28.228Z,963.17
2022-09-04T05:25:28.152Z,963.2
2022-09-04T05:26:28.254Z,963.27
2022-09-04T05:27:28.216Z,963.25
2022-09-04T05:28:28.156Z,963.29
2022-09-04T05:29:31.876Z,963.28
2022-09-04T05:30:28.224Z,963.33
2022-09-04T05:31:28.214Z,963.34
2022-09-04T05:32:28.163Z,963.37
2022-09-04T05:33:28.173Z,963.35
2022-09-04T05:34:28.192Z,963.38
2022-09-04T05:35:35.420Z,963.35
2022-09-04T05:36:28.238Z,963.4
2022-09-04T05:37:28.190Z,963.39
2022-09-04T05:38:28.275Z,963.42
2022-09-04T05:40:28.198Z,963.41
2022-09-04T05:41:28.198Z,963.46
2022-09-04T05:42:28.205Z,963.47
2022-09-04T05:43:28.208Z,963.5
2022-09-04T05:44:28.276Z,963.45
2022-09-04T05:45:29.338Z,963.47
2022-09-04T05:46:28.352Z,963.49
2022-09-04T05:47:30.613Z,963.48
2022-09-04T05:48:28.303Z,963.49
2022-09-04T05:49:28.320Z,963.48
2022-09-04T05:50:28.287Z,963.51
2022-09-04T05:51:28.353Z,963.52
2022-09-04T05:52:28.342Z,963.59
2022-09-04T05:53:28.290Z,963.57
2022-09-04T05:54:28.471Z,963.55
2022-09-04T05:55:28.326Z,963.54
2022-09-04T05:56:28.293Z,963.56
2022-09-04T05:57:28.379Z,963.62
2022-09-04T05:58:28.325Z,963.58
2022-09-04T05:59:28.299Z,963.61
2022-09-04T06:00:28.298Z,963.63
2022-09-04T06:01:28.378Z,963.62
2022-09-04T06:02:28.774Z,963.63
2022-09-04T06:03:28.258Z,963.65
2022-09-04T06:04:28.332Z,963.62
2022-09-04T06:05:28.312Z,963.64
2022-09-04T06:06:28.246Z,963.61
2022-09-04T06:07:28.260Z,963.63
2022-09-04T06:08:28.889Z,963.65
2022-09-04T06:09:28.382Z,963.64
2022-09-04T06:10:28.344Z,963.65
2022-09-04T06:13:28.545Z,963.63
2022-09-04T06:14:28.330Z,963.64
2022-09-04T06:15:28.392Z,963.68
2022-09-04T06:16:28.382Z,963.65
2022-09-04T06:17:28.332Z,963.67
2022-09-04T06:18:28.305Z,963.7
2022-09-04T06:19:28.365Z,963.71
2022-09-04T06:20:28.435Z,963.75
2022-09-04T06:21:28.399Z,963.8
2022-09-04T06:22:28.362Z,963.83
2022-09-04T06:23:28.303Z,963.85
2022-09-04T06:25:28.382Z,963.88
2022-09-04T06:26:28.345Z,963.9
2022-09-04T06:27:28.410Z,963.92
2022-09-04T06:28:28.385Z,963.89
2022-09-04T06:30:28.318Z,963.91
2022-09-04T06:32:28.452Z,963.93
2022-09-04T06:33:28.418Z,963.97
2022-09-04T06:34:28.382Z,964
2022-09-04T06:35:28.448Z,964.02
2022-09-04T06:36:28.417Z,963.99
2022-09-04T06:37:28.385Z,964.01
2022-09-04T06:38:28.457Z,964.06
2022-09-04T06:39:28.455Z,964.04
2022-09-04T06:40:29.679Z,964.05
2022-09-04T06:42:28.337Z,964.11
2022-09-04T06:44:28.351Z,964.08
2022-09-04T06:45:28.433Z,964.12
2022-09-04T06:46:28.547Z,964.09
2022-09-04T06:47:28.460Z,964.08
2022-09-04T06:49:28.409Z,964.12
2022-09-04T06:50:28.368Z,964.11
2022-09-04T06:54:28.433Z,964.12
2022-09-04T06:55:28.508Z,964.06
2022-09-04T06:56:28.519Z,964.08
2022-09-04T06:57:28.450Z,964.03
2022-09-04T06:58:28.526Z,964.05
2022-09-04T06:59:28.491Z,964.02
2022-09-04T07:01:28.648Z,964.01
2022-09-04T07:02:28.445Z,964
2022-09-04T07:03:28.452Z,964.03
2022-09-04T07:04:28.526Z,964.01
2022-09-04T07:05:28.494Z,964.02
2022-09-04T07:07:28.532Z,964.04
2022-09-04T07:08:28.497Z,964.03
2022-09-04T07:09:28.463Z,964.1
2022-09-04T07:11:28.414Z,964.09
2022-09-04T07:12:28.490Z,964.06
2022-09-04T07:13:28.538Z,964.12
2022-09-04T07:15:28.439Z,964.08
2022-09-04T07:16:28.421Z,964.06
2022-09-04T07:17:28.510Z,964.09
2022-09-04T07:18:28.426Z,964.11
2022-09-04T07:19:28.436Z,964.14
2022-09-04T07:20:28.516Z,964.15
2022-09-04T07:21:28.614Z,964.12
2022-09-04T07:23:28.691Z,964.16
2022-09-04T07:25:28.559Z,964.15
2022-09-04T07:26:28.612Z,964.16
2022-09-04T07:27:28.460Z,964.18
2022-09-04T07:28:28.552Z,964.2
2022-09-04T07:29:28.522Z,964.22
2022-09-04T07:30:28.450Z,964.28
2022-09-04T07:31:28.573Z,964.38
2022-09-04T07:32:28.459Z,964.5
2022-09-04T07:33:28.592Z,964.56
2022-09-04T07:34:28.467Z,964.75
2022-09-04T07:35:28.469Z,964.82
2022-09-04T07:36:29.729Z,964.84
2022-09-04T07:37:28.570Z,964.81
2022-09-04T07:39:28.506Z,964.77
2022-09-04T07:40:30.749Z,964.65
2022-09-04T07:41:28.638Z,964.62
2022-09-04T07:42:28.604Z,964.57
2022-09-04T07:43:28.579Z,964.51
2022-09-04T07:44:28.491Z,964.49
2022-09-04T07:45:28.512Z,964.45
2022-09-04T07:47:29.611Z,964.44
2022-09-04T07:48:28.501Z,964.43
2022-09-04T07:49:28.582Z,964.47
2022-09-04T07:50:28.661Z,964.58
2022-09-04T07:51:28.625Z,964.63
2022-09-04T07:52:28.594Z,964.62
2022-09-04T07:53:28.566Z,964.58
2022-09-04T07:54:28.622Z,964.68
2022-09-04T07:56:28.528Z,964.69
2022-09-04T07:57:28.524Z,964.61
2022-09-04T07:58:28.594Z,964.53
2022-09-04T07:59:28.558Z,964.44
2022-09-04T08:00:28.632Z,964.46
2022-09-04T08:01:28.599Z,964.44
2022-09-04T08:02:28.532Z,964.47
2022-09-04T08:03:28.634Z,964.56
2022-09-04T08:04:28.617Z,964.6
2022-09-04T08:05:28.597Z,964.65
2022-09-04T08:06:28.548Z,964.67
2022-09-04T08:07:28.548Z,964.7
2022-09-04T08:08:28.559Z,964.73
2022-09-04T08:09:28.639Z,964.75
2022-09-04T08:10:28.559Z,964.82
2022-09-04T08:11:28.559Z,964.89
2022-09-04T08:12:28.566Z,964.91
2022-09-04T08:13:28.560Z,964.89
2022-09-04T08:14:28.557Z,964.86
2022-09-04T08:15:28.618Z,964.83
2022-09-04T08:16:28.761Z,964.81
2022-09-04T08:17:28.694Z,964.75
2022-09-04T08:18:28.568Z,964.7
2022-09-04T08:19:28.721Z,964.72
2022-09-04T08:20:28.899Z,964.67
2022-09-04T08:22:28.578Z,964.74
2022-09-04T08:23:28.593Z,964.81
2022-09-04T08:24:28.664Z,964.84
2022-09-04T08:25:28.636Z,964.91
2022-09-04T08:26:28.595Z,964.94
2022-09-04T08:27:28.608Z,964.95
2022-09-04T08:28:28.630Z,964.99
2022-09-04T08:30:28.664Z,965.06
2022-09-04T08:31:28.685Z,965
2022-09-04T08:33:28.685Z,965.02
2022-09-04T08:34:28.626Z,965
2022-09-04T08:35:28.718Z,964.98
2022-09-04T08:36:28.689Z,965
2022-09-04T08:37:28.616Z,964.9
2022-09-04T08:38:28.722Z,964.85
2022-09-04T08:39:28.714Z,964.78
2022-09-04T08:40:28.669Z,964.8
2022-09-04T08:42:28.692Z,964.82
2022-09-04T08:43:28.662Z,964.81
2022-09-04T08:44:28.725Z,964.83
2022-09-04T08:45:28.683Z,964.89
2022-09-04T08:46:29.066Z,964.87
2022-09-04T08:47:28.735Z,964.88
2022-09-04T08:48:28.657Z,964.83
2022-09-04T08:50:28.739Z,964.78
2022-09-04T08:51:28.660Z,964.77
2022-09-04T08:52:28.771Z,964.74
2022-09-04T08:53:28.734Z,964.77
2022-09-04T08:54:28.724Z,964.76
2022-09-04T08:55:28.779Z,964.69
2022-09-04T08:56:28.670Z,964.7
2022-09-04T08:57:28.671Z,964.64
2022-09-04T08:58:28.790Z,964.6
2022-09-04T08:59:28.763Z,964.61
2022-09-04T09:00:28.678Z,964.66
2022-09-04T09:01:28.717Z,964.69
2022-09-04T09:02:28.804Z,964.72
2022-09-04T09:03:28.713Z,964.67
2022-09-04T09:05:28.761Z,964.64
2022-09-04T09:07:28.789Z,964.66
2022-09-04T09:08:31.475Z,964.62
2022-09-04T09:10:28.807Z,964.65
2022-09-04T09:11:28.756Z,964.64
2022-09-04T09:12:31.139Z,964.66
2022-09-04T09:13:28.730Z,964.64
2022-09-04T09:14:28.717Z,964.66
2022-09-04T09:15:28.829Z,964.62
2022-09-04T09:16:28.841Z,964.64
2022-09-04T09:17:30.066Z,964.66
2022-09-04T09:18:28.842Z,964.58
2022-09-04T09:19:28.727Z,964.55
2022-09-04T09:20:28.733Z,964.56
2022-09-04T09:22:28.822Z,964.58
2022-09-04T09:23:28.927Z,964.54
2022-09-04T09:25:28.812Z,964.54
2022-09-04T09:26:28.751Z,964.55
2022-09-04T09:27:28.858Z,964.56
2022-09-04T09:28:28.757Z,964.58
2022-09-04T09:29:28.836Z,964.55
2022-09-04T09:30:28.873Z,964.62
2022-09-04T09:31:28.796Z,964.66
2022-09-04T09:32:28.928Z,964.61
2022-09-04T09:33:28.858Z,964.59
2022-09-04T09:34:28.765Z,964.56
2022-09-04T09:35:28.772Z,964.54
2022-09-04T09:36:28.869Z,964.49
2022-09-04T09:38:28.776Z,964.5
2022-09-04T09:39:28.804Z,964.49
2022-09-04T09:40:28.835Z,964.5
2022-09-04T09:41:28.913Z,964.45
2022-09-04T09:42:28.874Z,964.42
2022-09-04T09:43:28.838Z,964.43
2022-09-04T09:44:28.803Z,964.41
2022-09-04T09:45:28.786Z,964.4
2022-09-04T09:46:28.881Z,964.36
2022-09-04T09:47:28.806Z,964.35
2022-09-04T09:48:28.877Z,964.42
2022-09-04T09:49:28.806Z,964.34
2022-09-04T09:50:28.915Z,964.32
2022-09-04T09:51:28.889Z,964.34
2022-09-04T09:53:28.814Z,964.35
2022-09-04T09:54:28.811Z,964.4
2022-09-04T09:55:28.822Z,964.41
2022-09-04T09:56:28.931Z,964.44
2022-09-04T09:57:33.323Z,964.37
2022-09-04T09:58:28.859Z,964.28
2022-09-04T09:59:28.837Z,964.31
2022-09-04T10:00:28.899Z,964.25
2022-09-04T10:01:28.908Z,964.29
2022-09-04T10:02:28.959Z,964.25
2022-09-04T10:03:28.907Z,964.23
2022-09-04T10:04:30.753Z,964.22
2022-09-04T10:05:28.935Z,964.2
2022-09-04T10:06:28.833Z,964.19
2022-09-04T10:07:28.851Z,964.23
2022-09-04T10:08:35.839Z,964.25
2022-09-04T10:09:28.979Z,964.28
2022-09-04T10:11:28.959Z,964.29
2022-09-04T10:12:28.918Z,964.26
2022-09-04T10:13:28.887Z,964.23
2022-09-04T10:14:28.874Z,964.2
2022-09-04T10:15:28.868Z,964.26
2022-09-04T10:16:29.029Z,964.25
2022-09-04T10:17:28.955Z,964.28
2022-09-04T10:18:28.887Z,964.23
2022-09-04T10:19:28.884Z,964.21
2022-09-04T10:20:28.960Z,964.22
2022-09-04T10:21:28.936Z,964.25
2022-09-04T10:22:28.996Z,964.27
2022-09-04T10:23:28.895Z,964.25
2022-09-04T10:24:29.025Z,964.26
2022-09-04T10:25:29.011Z,964.22
2022-09-04T10:26:29.343Z,964.18
2022-09-04T10:27:29.034Z,964.2
2022-09-04T10:28:28.900Z,964.21
2022-09-04T10:29:28.907Z,964.22
2022-09-04T10:30:28.943Z,964.2
2022-09-04T10:31:28.928Z,964.21
2022-09-04T10:32:28.970Z,964.2
2022-09-04T10:33:28.917Z,964.22
2022-09-04T10:34:29.009Z,964.23
2022-09-04T10:35:28.994Z,964.24
2022-09-04T10:37:29.012Z,964.2
2022-09-04T10:38:28.931Z,964.17
2022-09-04T10:39:29.099Z,964.13
2022-09-04T10:40:29.029Z,964.06
2022-09-04T10:41:28.978Z,964.04
2022-09-04T10:42:28.948Z,964.01
2022-09-04T10:43:28.944Z,964.05
2022-09-04T10:45:29.081Z,964.09
2022-09-04T10:46:29.022Z,964.07
2022-09-04T10:48:29.070Z,964.08
2022-09-04T10:49:29.029Z,964.09
2022-09-04T10:50:28.999Z,964.06
2022-09-04T10:51:29.072Z,964
2022-09-04T10:52:29.039Z,964.01
2022-09-04T10:53:29.005Z,963.99
2022-09-04T10:54:28.984Z,963.97
2022-09-04T10:55:29.073Z,963.98
2022-09-04T10:56:29.114Z,964.01
2022-09-04T10:57:28.994Z,964.03
2022-09-04T10:58:29.048Z,964.02
2022-09-04T10:59:29.003Z,963.99
2022-09-04T11:00:29.072Z,964
2022-09-04T11:01:29.072Z,964.03
2022-09-04T11:02:29.037Z,963.99
2022-09-04T11:03:29.087Z,964.07
2022-09-04T11:04:29.054Z,964.03
2022-09-04T11:05:29.006Z,964.05
2022-09-04T11:06:29.087Z,964
2022-09-04T11:07:29.011Z,963.98
2022-09-04T11:08:28.999Z,963.97
2022-09-04T11:09:29.092Z,963.95
2022-09-04T11:10:29.061Z,963.94
2022-09-04T11:11:29.135Z,963.89
2022-09-04T11:13:29.085Z,963.83
2022-09-04T11:14:29.137Z,963.81
2022-09-04T11:16:29.128Z,963.83
2022-09-04T11:17:29.142Z,963.81
2022-09-04T11:18:29.108Z,963.8
2022-09-04T11:19:29.066Z,963.79
2022-09-04T11:20:29.139Z,963.8
2022-09-04T11:21:29.110Z,963.78
2022-09-04T11:22:29.063Z,963.82
2022-09-04T11:23:29.061Z,963.84
2022-09-04T11:25:29.188Z,963.82
2022-09-04T11:26:29.057Z,963.79
2022-09-04T11:27:29.070Z,963.81
2022-09-04T11:28:29.106Z,963.77
2022-09-04T11:29:29.280Z,963.72
2022-09-04T11:30:29.123Z,963.76
2022-09-04T11:31:29.230Z,963.77
2022-09-04T11:32:29.067Z,963.74
2022-09-04T11:33:29.119Z,963.73
2022-09-04T11:34:29.195Z,963.75
2022-09-04T11:35:29.157Z,963.78
2022-09-04T11:36:29.145Z,963.75
2022-09-04T11:37:29.084Z,963.82
2022-09-04T11:38:29.092Z,963.79
2022-09-04T11:39:29.123Z,963.78
2022-09-04T11:40:29.227Z,963.74
2022-09-04T11:41:29.161Z,963.77
2022-09-04T11:42:29.096Z,963.72
2022-09-04T11:43:29.207Z,963.74
2022-09-04T11:44:29.177Z,963.76
2022-09-04T11:45:29.195Z,963.79
2022-09-04T11:46:29.211Z,963.77
2022-09-04T11:47:29.106Z,963.74
2022-09-04T11:48:29.245Z,963.72
2022-09-04T11:49:29.209Z,963.7
2022-09-04T11:50:29.115Z,963.69
2022-09-04T11:51:29.119Z,963.71
2022-09-04T11:52:29.216Z,963.74
2022-09-04T11:55:29.222Z,963.77
2022-09-04T11:56:29.139Z,963.75
2022-09-04T11:57:29.261Z,963.74
2022-09-04T11:58:29.227Z,963.75
2022-09-04T12:00:29.265Z,963.71
2022-09-04T12:01:29.228Z,963.73
2022-09-04T12:02:29.241Z,963.77
2022-09-04T12:03:29.193Z,963.7
2022-09-04T12:04:29.407Z,963.69
2022-09-04T12:05:29.249Z,963.68
2022-09-04T12:06:29.278Z,963.57
2022-09-04T12:07:33.666Z,963.53
2022-09-04T12:08:29.298Z,963.47
2022-09-04T12:09:29.287Z,963.4
2022-09-04T12:10:29.247Z,963.39
2022-09-04T12:11:29.307Z,963.36
2022-09-04T12:12:29.173Z,963.39
2022-09-04T12:13:29.319Z,963.35
2022-09-04T12:14:29.172Z,963.36
2022-09-04T12:15:29.180Z,963.41
2022-09-04T12:16:29.285Z,963.45
2022-09-04T12:17:29.233Z,963.53
2022-09-04T12:18:29.202Z,963.56
2022-09-04T12:19:29.195Z,963.66
2022-09-04T12:20:29.207Z,963.65
2022-09-04T12:22:29.276Z,963.62
2022-09-04T12:23:29.218Z,963.61
2022-09-04T12:24:29.212Z,963.56
2022-09-04T12:25:29.285Z,963.54
2022-09-04T12:26:29.208Z,963.53
2022-09-04T12:28:29.299Z,963.62
2022-09-04T12:29:29.227Z,963.63
2022-09-04T12:30:29.305Z,963.67
2022-09-04T12:31:29.326Z,963.69
2022-09-04T12:32:29.337Z,963.71
2022-09-04T12:33:29.301Z,963.65
2022-09-04T12:34:29.280Z,963.7
2022-09-04T12:35:31.872Z,963.65
2022-09-04T12:36:29.493Z,963.62
2022-09-04T12:37:29.239Z,963.55
2022-09-04T12:38:29.347Z,963.54
2022-09-04T12:39:29.320Z,963.57
2022-09-04T12:40:29.279Z,963.59
2022-09-04T12:41:29.257Z,963.57
2022-09-04T12:42:29.257Z,963.64
2022-09-04T12:44:29.265Z,963.65
2022-09-04T12:46:29.289Z,963.66
2022-09-04T12:47:30.453Z,963.67
2022-09-04T12:48:29.452Z,963.65
2022-09-04T12:49:29.280Z,963.61
2022-09-04T12:50:29.364Z,963.64
2022-09-04T12:53:29.291Z,963.6
2022-09-04T12:54:29.373Z,963.64
2022-09-04T12:55:29.408Z,963.57
2022-09-04T12:56:29.644Z,963.68
2022-09-04T12:57:29.295Z,963.65
2022-09-04T12:59:29.280Z,963.57
2022-09-04T13:00:31.765Z,963.54
2022-09-04T13:01:29.594Z,963.56
2022-09-04T13:02:29.449Z,963.57
2022-09-04T13:03:29.315Z,963.49
2022-09-04T13:04:29.313Z,963.46
2022-09-04T13:05:29.371Z,963.43
2022-09-04T13:06:29.307Z,963.48
2022-09-04T13:07:29.325Z,963.44
2022-09-04T13:08:29.411Z,963.48
2022-09-04T13:09:29.489Z,963.52
2022-09-04T13:10:29.435Z,963.54
2022-09-04T13:11:29.402Z,963.56
2022-09-04T13:12:29.341Z,963.59
2022-09-04T13:13:29.330Z,963.65
2022-09-04T13:14:29.342Z,963.59
2022-09-04T13:15:29.356Z,963.63
2022-09-04T13:17:29.347Z,963.7
2022-09-04T13:18:29.352Z,963.65
2022-09-04T13:19:29.341Z,963.64
2022-09-04T13:20:29.382Z,963.6
2022-09-04T13:21:29.466Z,963.57
2022-09-04T13:22:29.444Z,963.61
2022-09-04T13:23:29.363Z,963.64
2022-09-04T13:24:29.562Z,963.67
2022-09-04T13:25:29.444Z,963.64
2022-09-04T13:26:29.368Z,963.72
2022-09-04T13:27:29.366Z,963.71
2022-09-04T13:28:29.375Z,963.72
2022-09-04T13:30:29.525Z,963.73
2022-09-04T13:31:29.528Z,963.7
2022-09-04T13:32:29.381Z,963.63
2022-09-04T13:33:29.491Z,963.6
2022-09-04T13:34:29.393Z,963.59
2022-09-04T13:35:29.397Z,963.52
2022-09-04T13:36:29.516Z,963.54
2022-09-04T13:37:29.579Z,963.55
2022-09-04T13:38:29.528Z,963.59
2022-09-04T13:39:29.535Z,963.55
2022-09-04T13:40:29.399Z,963.61
2022-09-04T13:41:30.353Z,963.59
2022-09-04T13:42:29.494Z,963.62
2022-09-04T13:43:29.469Z,963.59
2022-09-04T13:44:29.424Z,963.64
2022-09-04T13:45:29.662Z,963.61
2022-09-04T13:46:29.528Z,963.63
2022-09-04T13:47:32.019Z,963.56
2022-09-04T13:48:29.617Z,963.55
2022-09-04T13:49:29.472Z,963.56
2022-09-04T13:50:29.547Z,963.52
2022-09-04T13:51:29.508Z,963.5
2022-09-04T13:52:29.438Z,963.55
2022-09-04T13:53:29.549Z,963.54
2022-09-04T13:54:29.447Z,963.57
2022-09-04T13:55:29.452Z,963.51
2022-09-04T13:56:29.445Z,963.53
2022-09-04T13:57:29.516Z,963.52
2022-09-04T13:59:29.559Z,963.48
2022-09-04T14:00:29.598Z,963.46
2022-09-04T14:01:29.596Z,963.5
2022-09-04T14:02:29.559Z,963.47
2022-09-04T14:03:29.469Z,963.45
2022-09-04T14:04:29.652Z,963.46
2022-09-04T14:05:29.565Z,963.4
2022-09-04T14:06:29.465Z,963.45
2022-09-04T14:07:29.490Z,963.47
2022-09-04T14:08:29.564Z,963.52
2022-09-04T14:09:29.489Z,963.51